sensor_id;sensor_type;location;lat;lon;timestamp;P1;durP1;ratioP1;P2;durP2;ratioP2
11010;SDS011;5558;42.702;23.178;2023-07-30T00:00:58;2.40;;;2.20;;
11010;SDS011;5558;42.702;23.178;2023-07-30T00:03:25;2.07;;;1.97;;
11010;SDS011;5558;42.702;23.178;2023-07-30T00:05:52;2.40;;;2.20;;
11010;SDS011;5558;42.702;23.178;2023-07-30T00:08:20;2.60;;;2.23;;
11010;SDS011;5558;42.702;23.178;2023-07-30T00:10:46;2.87;;;2.23;;
11010;SDS011;5558;42.702;23.178;2023-07-30T00:13:14;2.40;;;2.20;;
11010;SDS011;5558;42.702;23.178;2023-07-30T00:15:41;2.37;;;2.17;;
11010;SDS011;5558;42.702;23.178;2023-07-30T00:18:08;2.60;;;2.40;;
11010;SDS011;5558;42.702;23.178;2023-07-30T00:20:35;2.70;;;2.10;;
11010;SDS011;5558;42.702;23.178;2023-07-30T00:23:01;2.50;;;2.30;;
11010;SDS011;5558;42.702;23.178;2023-07-30T00:25:28;2.53;;;2.33;;
11010;SDS011;5558;42.702;23.178;2023-07-30T00:27:55;2.67;;;2.47;;
11010;SDS011;5558;42.702;23.178;2023-07-30T00:30:23;2.40;;;2.20;;
11010;SDS011;5558;42.702;23.178;2023-07-30T00:32:50;2.67;;;2.47;;
11010;SDS011;5558;42.702;23.178;2023-07-30T00:35:16;2.60;;;2.23;;
11010;SDS011;5558;42.702;23.178;2023-07-30T00:37:43;2.50;;;2.30;;
11010;SDS011;5558;42.702;23.178;2023-07-30T00:40:10;2.63;;;2.20;;
11010;SDS011;5558;42.702;23.178;2023-07-30T00:42:37;2.50;;;2.40;;
11010;SDS011;5558;42.702;23.178;2023-07-30T00:45:04;2.40;;;2.20;;
11010;SDS011;5558;42.702;23.178;2023-07-30T00:47:33;2.53;;;2.33;;
11010;SDS011;5558;42.702;23.178;2023-07-30T00:50:00;2.67;;;2.20;;
11010;SDS011;5558;42.702;23.178;2023-07-30T00:52:27;2.30;;;2.20;;
11010;SDS011;5558;42.702;23.178;2023-07-30T00:54:54;3.20;;;2.40;;
11010;SDS011;5558;42.702;23.178;2023-07-30T00:57:23;2.37;;;2.17;;
11010;SDS011;5558;42.702;23.178;2023-07-30T00:59:51;3.23;;;2.30;;
11010;SDS011;5558;42.702;23.178;2023-07-30T01:02:18;3.03;;;2.73;;
11010;SDS011;5558;42.702;23.178;2023-07-30T01:04:46;2.50;;;2.30;;
11010;SDS011;5558;42.702;23.178;2023-07-30T01:07:13;2.43;;;2.33;;
11010;SDS011;5558;42.702;23.178;2023-07-30T01:09:40;2.97;;;2.40;;
11010;SDS011;5558;42.702;23.178;2023-07-30T01:12:07;2.27;;;2.17;;
11010;SDS011;5558;42.702;23.178;2023-07-30T01:14:35;3.40;;;2.50;;
11010;SDS011;5558;42.702;23.178;2023-07-30T01:17:03;3.17;;;2.20;;
11010;SDS011;5558;42.702;23.178;2023-07-30T01:19:30;2.73;;;2.53;;
11010;SDS011;5558;42.702;23.178;2023-07-30T01:21:59;2.50;;;2.30;;
11010;SDS011;5558;42.702;23.178;2023-07-30T01:24:25;2.93;;;2.33;;
11010;SDS011;5558;42.702;23.178;2023-07-30T01:26:55;2.70;;;2.50;;
11010;SDS011;5558;42.702;23.178;2023-07-30T01:29:27;2.67;;;2.30;;
11010;SDS011;5558;42.702;23.178;2023-07-30T01:32:02;2.50;;;2.30;;
11010;SDS011;5558;42.702;23.178;2023-07-30T01:34:31;2.63;;;2.40;;
11010;SDS011;5558;42.702;23.178;2023-07-30T01:37:03;2.60;;;2.40;;
11010;SDS011;5558;42.702;23.178;2023-07-30T01:39:32;2.80;;;2.60;;
11010;SDS011;5558;42.702;23.178;2023-07-30T01:42:02;2.60;;;2.40;;
11010;SDS011;5558;42.702;23.178;2023-07-30T01:44:29;2.03;;;1.93;;
11010;SDS011;5558;42.702;23.178;2023-07-30T01:46:56;2.40;;;2.20;;
11010;SDS011;5558;42.702;23.178;2023-07-30T01:49:22;2.83;;;2.50;;
11010;SDS011;5558;42.702;23.178;2023-07-30T01:51:49;2.50;;;2.30;;
11010;SDS011;5558;42.702;23.178;2023-07-30T01:54:17;2.40;;;2.20;;
11010;SDS011;5558;42.702;23.178;2023-07-30T01:56:44;2.40;;;2.20;;
11010;SDS011;5558;42.702;23.178;2023-07-30T01:59:11;2.83;;;2.47;;
11010;SDS011;5558;42.702;23.178;2023-07-30T02:01:37;2.80;;;2.43;;
11010;SDS011;5558;42.702;23.178;2023-07-30T02:04:04;2.47;;;2.30;;
11010;SDS011;5558;42.702;23.178;2023-07-30T02:06:31;2.60;;;2.40;;
11010;SDS011;5558;42.702;23.178;2023-07-30T02:08:57;2.47;;;2.27;;
11010;SDS011;5558;42.702;23.178;2023-07-30T02:11:25;2.70;;;2.50;;
11010;SDS011;5558;42.702;23.178;2023-07-30T02:13:53;2.60;;;2.40;;
11010;SDS011;5558;42.702;23.178;2023-07-30T02:16:20;2.97;;;2.50;;
11010;SDS011;5558;42.702;23.178;2023-07-30T02:18:46;2.63;;;2.43;;
11010;SDS011;5558;42.702;23.178;2023-07-30T02:21:13;2.80;;;2.60;;
11010;SDS011;5558;42.702;23.178;2023-07-30T02:23:40;2.73;;;2.53;;
11010;SDS011;5558;42.702;23.178;2023-07-30T02:26:07;3.20;;;2.60;;
11010;SDS011;5558;42.702;23.178;2023-07-30T02:28:35;2.77;;;2.57;;
11010;SDS011;5558;42.702;23.178;2023-07-30T02:31:01;2.60;;;2.40;;
11010;SDS011;5558;42.702;23.178;2023-07-30T02:33:28;3.57;;;2.73;;
11010;SDS011;5558;42.702;23.178;2023-07-30T02:35:55;2.70;;;2.50;;
11010;SDS011;5558;42.702;23.178;2023-07-30T02:38:22;2.90;;;2.70;;
11010;SDS011;5558;42.702;23.178;2023-07-30T02:40:49;2.87;;;2.57;;
11010;SDS011;5558;42.702;23.178;2023-07-30T02:43:15;3.63;;;2.83;;
11010;SDS011;5558;42.702;23.178;2023-07-30T02:45:43;3.53;;;2.60;;
11010;SDS011;5558;42.702;23.178;2023-07-30T02:48:13;2.93;;;2.73;;
11010;SDS011;5558;42.702;23.178;2023-07-30T02:50:40;3.20;;;2.90;;
11010;SDS011;5558;42.702;23.178;2023-07-30T02:53:06;2.70;;;2.50;;
11010;SDS011;5558;42.702;23.178;2023-07-30T02:55:33;2.80;;;2.60;;
11010;SDS011;5558;42.702;23.178;2023-07-30T02:58:00;2.87;;;2.67;;
11010;SDS011;5558;42.702;23.178;2023-07-30T03:00:26;3.87;;;2.77;;
11010;SDS011;5558;42.702;23.178;2023-07-30T03:02:55;2.77;;;2.57;;
11010;SDS011;5558;42.702;23.178;2023-07-30T03:05:22;3.20;;;2.90;;
11010;SDS011;5558;42.702;23.178;2023-07-30T03:07:49;3.30;;;2.90;;
11010;SDS011;5558;42.702;23.178;2023-07-30T03:10:15;4.67;;;2.90;;
11010;SDS011;5558;42.702;23.178;2023-07-30T03:12:42;4.40;;;2.97;;
11010;SDS011;5558;42.702;23.178;2023-07-30T03:15:09;2.93;;;2.73;;
11010;SDS011;5558;42.702;23.178;2023-07-30T03:17:36;5.10;;;2.97;;
11010;SDS011;5558;42.702;23.178;2023-07-30T03:20:04;2.90;;;2.60;;
11010;SDS011;5558;42.702;23.178;2023-07-30T03:22:32;2.87;;;2.67;;
11010;SDS011;5558;42.702;23.178;2023-07-30T03:24:58;2.90;;;2.50;;
11010;SDS011;5558;42.702;23.178;2023-07-30T03:27:25;2.73;;;2.47;;
11010;SDS011;5558;42.702;23.178;2023-07-30T03:29:52;2.77;;;2.57;;
11010;SDS011;5558;42.702;23.178;2023-07-30T03:32:18;2.60;;;2.40;;
11010;SDS011;5558;42.702;23.178;2023-07-30T03:34:45;3.23;;;2.60;;
11010;SDS011;5558;42.702;23.178;2023-07-30T03:37:13;2.50;;;2.20;;
11010;SDS011;5558;42.702;23.178;2023-07-30T03:39:40;2.40;;;2.20;;
11010;SDS011;5558;42.702;23.178;2023-07-30T03:42:06;3.13;;;2.10;;
11010;SDS011;5558;42.702;23.178;2023-07-30T03:44:33;3.10;;;2.30;;
11010;SDS011;5558;42.702;23.178;2023-07-30T03:47:00;2.37;;;2.17;;
11010;SDS011;5558;42.702;23.178;2023-07-30T03:49:27;2.20;;;2.00;;
11010;SDS011;5558;42.702;23.178;2023-07-30T03:51:53;2.73;;;1.90;;
11010;SDS011;5558;42.702;23.178;2023-07-30T03:54:21;4.20;;;1.90;;
11010;SDS011;5558;42.702;23.178;2023-07-30T03:56:48;2.33;;;1.80;;
11010;SDS011;5558;42.702;23.178;2023-07-30T03:59:15;1.87;;;1.70;;
11010;SDS011;5558;42.702;23.178;2023-07-30T04:01:41;2.63;;;1.70;;
11010;SDS011;5558;42.702;23.178;2023-07-30T04:04:08;2.13;;;1.80;;
11010;SDS011;5558;42.702;23.178;2023-07-30T04:06:35;2.40;;;1.80;;
11010;SDS011;5558;42.702;23.178;2023-07-30T04:09:01;2.83;;;1.80;;
11010;SDS011;5558;42.702;23.178;2023-07-30T04:11:30;2.00;;;1.90;;
11010;SDS011;5558;42.702;23.178;2023-07-30T04:13:56;2.50;;;2.03;;
11010;SDS011;5558;42.702;23.178;2023-07-30T04:16:23;2.07;;;1.90;;
11010;SDS011;5558;42.702;23.178;2023-07-30T04:18:50;1.97;;;1.83;;
11010;SDS011;5558;42.702;23.178;2023-07-30T04:21:16;2.07;;;1.87;;
11010;SDS011;5558;42.702;23.178;2023-07-30T04:23:43;1.97;;;1.83;;
11010;SDS011;5558;42.702;23.178;2023-07-30T04:26:09;2.00;;;1.90;;
11010;SDS011;5558;42.702;23.178;2023-07-30T04:28:38;1.77;;;1.67;;
11010;SDS011;5558;42.702;23.178;2023-07-30T04:31:04;2.17;;;1.80;;
11010;SDS011;5558;42.702;23.178;2023-07-30T04:33:31;1.90;;;1.80;;
11010;SDS011;5558;42.702;23.178;2023-07-30T04:35:58;2.03;;;1.85;;
11010;SDS011;5558;42.702;23.178;2023-07-30T04:38:24;1.80;;;1.70;;
11010;SDS011;5558;42.702;23.178;2023-07-30T04:40:51;2.65;;;2.10;;
11010;SDS011;5558;42.702;23.178;2023-07-30T04:43:18;2.22;;;2.10;;
11010;SDS011;5558;42.702;23.178;2023-07-30T04:45:46;2.28;;;2.05;;
11010;SDS011;5558;42.702;23.178;2023-07-30T04:48:12;2.38;;;2.17;;
11010;SDS011;5558;42.702;23.178;2023-07-30T04:50:39;2.35;;;2.15;;
11010;SDS011;5558;42.702;23.178;2023-07-30T04:53:07;3.78;;;2.20;;
11010;SDS011;5558;42.702;23.178;2023-07-30T04:55:34;2.38;;;2.17;;
11010;SDS011;5558;42.702;23.178;2023-07-30T04:58:00;3.35;;;1.95;;
11010;SDS011;5558;42.702;23.178;2023-07-30T05:00:27;2.15;;;1.95;;
11010;SDS011;5558;42.702;23.178;2023-07-30T05:02:55;3.22;;;2.22;;
11010;SDS011;5558;42.702;23.178;2023-07-30T05:05:22;2.60;;;2.00;;
11010;SDS011;5558;42.702;23.178;2023-07-30T05:07:48;2.10;;;2.00;;
11010;SDS011;5558;42.702;23.178;2023-07-30T05:10:15;2.38;;;2.17;;
11010;SDS011;5558;42.702;23.178;2023-07-30T05:12:42;3.80;;;2.15;;
11010;SDS011;5558;42.702;23.178;2023-07-30T05:15:09;2.83;;;2.28;;
11010;SDS011;5558;42.702;23.178;2023-07-30T05:17:36;1.95;;;1.85;;
11010;SDS011;5558;42.702;23.178;2023-07-30T05:20:04;2.88;;;2.10;;
11010;SDS011;5558;42.702;23.178;2023-07-30T05:22:32;2.67;;;2.00;;
11010;SDS011;5558;42.702;23.178;2023-07-30T05:24:58;2.10;;;1.90;;
11010;SDS011;5558;42.702;23.178;2023-07-30T05:27:25;4.30;;;2.08;;
11010;SDS011;5558;42.702;23.178;2023-07-30T05:29:54;3.38;;;2.10;;
11010;SDS011;5558;42.702;23.178;2023-07-30T05:32:20;2.35;;;1.90;;
11010;SDS011;5558;42.702;23.178;2023-07-30T05:34:47;2.45;;;2.00;;
11010;SDS011;5558;42.702;23.178;2023-07-30T05:37:15;2.35;;;2.15;;
11010;SDS011;5558;42.702;23.178;2023-07-30T05:39:42;2.45;;;2.10;;
11010;SDS011;5558;42.702;23.178;2023-07-30T05:42:08;2.40;;;1.98;;
11010;SDS011;5558;42.702;23.178;2023-07-30T05:44:35;2.38;;;2.00;;
11010;SDS011;5558;42.702;23.178;2023-07-30T05:47:02;2.95;;;2.10;;
11010;SDS011;5558;42.702;23.178;2023-07-30T05:49:29;2.47;;;2.00;;
11010;SDS011;5558;42.702;23.178;2023-07-30T05:51:56;2.65;;;2.17;;
11010;SDS011;5558;42.702;23.178;2023-07-30T05:54:24;2.33;;;2.13;;
11010;SDS011;5558;42.702;23.178;2023-07-30T05:56:51;2.50;;;2.30;;
11010;SDS011;5558;42.702;23.178;2023-07-30T05:59:18;3.03;;;2.17;;
11010;SDS011;5558;42.702;23.178;2023-07-30T06:01:46;2.78;;;2.33;;
11010;SDS011;5558;42.702;23.178;2023-07-30T06:04:12;2.80;;;2.25;;
11010;SDS011;5558;42.702;23.178;2023-07-30T06:06:39;3.67;;;2.42;;
11010;SDS011;5558;42.702;23.178;2023-07-30T06:09:06;3.67;;;2.50;;
11010;SDS011;5558;42.702;23.178;2023-07-30T06:11:34;3.70;;;2.30;;
11010;SDS011;5558;42.702;23.178;2023-07-30T06:14:01;2.60;;;2.40;;
11010;SDS011;5558;42.702;23.178;2023-07-30T06:16:27;3.17;;;2.47;;
11010;SDS011;5558;42.702;23.178;2023-07-30T06:18:54;3.47;;;2.63;;
11010;SDS011;5558;42.702;23.178;2023-07-30T06:21:21;2.70;;;2.50;;
11010;SDS011;5558;42.702;23.178;2023-07-30T06:23:47;3.58;;;2.80;;
11010;SDS011;5558;42.702;23.178;2023-07-30T06:26:14;4.43;;;2.47;;
11010;SDS011;5558;42.702;23.178;2023-07-30T06:28:42;2.97;;;2.40;;
11010;SDS011;5558;42.702;23.178;2023-07-30T06:31:09;4.00;;;2.67;;
11010;SDS011;5558;42.702;23.178;2023-07-30T06:33:35;3.67;;;2.45;;
11010;SDS011;5558;42.702;23.178;2023-07-30T06:36:03;3.20;;;2.58;;
11010;SDS011;5558;42.702;23.178;2023-07-30T06:38:30;4.07;;;2.40;;
11010;SDS011;5558;42.702;23.178;2023-07-30T06:40:56;4.00;;;2.90;;
11010;SDS011;5558;42.702;23.178;2023-07-30T06:43:24;5.18;;;2.60;;
11010;SDS011;5558;42.702;23.178;2023-07-30T06:45:53;6.05;;;3.08;;
11010;SDS011;5558;42.702;23.178;2023-07-30T06:48:19;5.75;;;3.00;;
11010;SDS011;5558;42.702;23.178;2023-07-30T06:50:46;5.00;;;2.53;;
11010;SDS011;5558;42.702;23.178;2023-07-30T06:53:13;3.83;;;2.67;;
11010;SDS011;5558;42.702;23.178;2023-07-30T06:55:40;4.75;;;3.17;;
11010;SDS011;5558;42.702;23.178;2023-07-30T06:58:06;4.90;;;2.85;;
11010;SDS011;5558;42.702;23.178;2023-07-30T07:00:33;4.35;;;2.90;;
11010;SDS011;5558;42.702;23.178;2023-07-30T07:03:01;5.70;;;2.85;;
11010;SDS011;5558;42.702;23.178;2023-07-30T07:05:28;6.47;;;2.90;;
11010;SDS011;5558;42.702;23.178;2023-07-30T07:07:55;3.80;;;2.83;;
11010;SDS011;5558;42.702;23.178;2023-07-30T07:10:21;8.23;;;3.33;;
11010;SDS011;5558;42.702;23.178;2023-07-30T07:12:48;5.05;;;3.00;;
11010;SDS011;5558;42.702;23.178;2023-07-30T07:15:15;3.72;;;2.65;;
11010;SDS011;5558;42.702;23.178;2023-07-30T07:17:41;6.40;;;3.00;;
11010;SDS011;5558;42.702;23.178;2023-07-30T07:20:10;5.57;;;3.00;;
11010;SDS011;5558;42.702;23.178;2023-07-30T07:22:36;4.67;;;2.80;;
11010;SDS011;5558;42.702;23.178;2023-07-30T07:25:03;7.07;;;2.57;;
11010;SDS011;5558;42.702;23.178;2023-07-30T07:27:30;5.53;;;2.80;;
11010;SDS011;5558;42.702;23.178;2023-07-30T07:29:57;3.43;;;2.60;;
11010;SDS011;5558;42.702;23.178;2023-07-30T07:32:24;5.20;;;2.50;;
11010;SDS011;5558;42.702;23.178;2023-07-30T07:34:51;4.47;;;2.80;;
11010;SDS011;5558;42.702;23.178;2023-07-30T07:37:19;3.30;;;2.60;;
11010;SDS011;5558;42.702;23.178;2023-07-30T07:39:45;4.50;;;2.60;;
11010;SDS011;5558;42.702;23.178;2023-07-30T07:42:12;8.57;;;2.97;;
11010;SDS011;5558;42.702;23.178;2023-07-30T07:44:39;5.23;;;2.30;;
11010;SDS011;5558;42.702;23.178;2023-07-30T07:47:07;7.30;;;2.67;;
11010;SDS011;5558;42.702;23.178;2023-07-30T07:49:33;4.23;;;2.40;;
11010;SDS011;5558;42.702;23.178;2023-07-30T07:52:00;3.13;;;2.40;;
11010;SDS011;5558;42.702;23.178;2023-07-30T07:54:28;3.33;;;2.60;;
11010;SDS011;5558;42.702;23.178;2023-07-30T07:56:55;4.53;;;2.50;;
11010;SDS011;5558;42.702;23.178;2023-07-30T07:59:21;3.43;;;2.80;;
11010;SDS011;5558;42.702;23.178;2023-07-30T08:01:49;5.23;;;2.97;;
11010;SDS011;5558;42.702;23.178;2023-07-30T08:04:16;3.73;;;2.60;;
11010;SDS011;5558;42.702;23.178;2023-07-30T08:06:43;4.23;;;2.90;;
11010;SDS011;5558;42.702;23.178;2023-07-30T08:09:10;4.47;;;2.87;;
11010;SDS011;5558;42.702;23.178;2023-07-30T08:11:38;5.17;;;2.90;;
11010;SDS011;5558;42.702;23.178;2023-07-30T08:14:04;5.10;;;2.70;;
11010;SDS011;5558;42.702;23.178;2023-07-30T08:16:31;2.93;;;2.63;;
11010;SDS011;5558;42.702;23.178;2023-07-30T08:18:58;5.40;;;2.87;;
11010;SDS011;5558;42.702;23.178;2023-07-30T08:21:24;3.77;;;2.60;;
11010;SDS011;5558;42.702;23.178;2023-07-30T08:23:51;3.63;;;2.80;;
11010;SDS011;5558;42.702;23.178;2023-07-30T08:26:18;4.20;;;2.73;;
11010;SDS011;5558;42.702;23.178;2023-07-30T08:28:46;4.87;;;2.80;;
11010;SDS011;5558;42.702;23.178;2023-07-30T08:31:13;4.13;;;2.67;;
11010;SDS011;5558;42.702;23.178;2023-07-30T08:33:39;3.60;;;2.97;;
11010;SDS011;5558;42.702;23.178;2023-07-30T08:36:06;6.43;;;3.00;;
11010;SDS011;5558;42.702;23.178;2023-07-30T08:38:33;4.20;;;2.80;;
11010;SDS011;5558;42.702;23.178;2023-07-30T08:41:00;5.73;;;3.00;;
11010;SDS011;5558;42.702;23.178;2023-07-30T08:43:26;4.73;;;2.90;;
11010;SDS011;5558;42.702;23.178;2023-07-30T08:45:54;5.03;;;3.07;;
11010;SDS011;5558;42.702;23.178;2023-07-30T08:48:21;6.40;;;3.03;;
11010;SDS011;5558;42.702;23.178;2023-07-30T08:50:48;7.03;;;3.00;;
11010;SDS011;5558;42.702;23.178;2023-07-30T08:53:16;2.83;;;2.50;;
11010;SDS011;5558;42.702;23.178;2023-07-30T08:55:43;4.70;;;2.73;;
11010;SDS011;5558;42.702;23.178;2023-07-30T08:58:11;3.10;;;2.60;;
11010;SDS011;5558;42.702;23.178;2023-07-30T09:00:38;4.43;;;2.63;;
11010;SDS011;5558;42.702;23.178;2023-07-30T09:03:10;3.60;;;2.67;;
11010;SDS011;5558;42.702;23.178;2023-07-30T09:05:41;3.23;;;2.80;;
11010;SDS011;5558;42.702;23.178;2023-07-30T09:08:07;3.17;;;2.80;;
11010;SDS011;5558;42.702;23.178;2023-07-30T09:10:36;3.40;;;2.70;;
11010;SDS011;5558;42.702;23.178;2023-07-30T09:13:02;6.03;;;2.90;;
11010;SDS011;5558;42.702;23.178;2023-07-30T09:15:29;4.10;;;2.70;;
11010;SDS011;5558;42.702;23.178;2023-07-30T09:17:58;5.17;;;2.90;;
11010;SDS011;5558;42.702;23.178;2023-07-30T09:20:26;2.87;;;2.50;;
11010;SDS011;5558;42.702;23.178;2023-07-30T09:22:55;3.60;;;2.80;;
11010;SDS011;5558;42.702;23.178;2023-07-30T09:25:22;4.70;;;2.50;;
11010;SDS011;5558;42.702;23.178;2023-07-30T09:27:49;4.60;;;2.43;;
11010;SDS011;5558;42.702;23.178;2023-07-30T09:30:21;4.83;;;2.53;;
11010;SDS011;5558;42.702;23.178;2023-07-30T09:32:50;4.03;;;2.70;;
11010;SDS011;5558;42.702;23.178;2023-07-30T09:35:18;3.07;;;2.43;;
11010;SDS011;5558;42.702;23.178;2023-07-30T09:37:46;3.00;;;2.40;;
11010;SDS011;5558;42.702;23.178;2023-07-30T09:40:14;2.57;;;2.37;;
11010;SDS011;5558;42.702;23.178;2023-07-30T09:42:43;3.73;;;2.40;;
11010;SDS011;5558;42.702;23.178;2023-07-30T09:45:16;2.87;;;2.50;;
11010;SDS011;5558;42.702;23.178;2023-07-30T09:47:45;2.67;;;2.40;;
11010;SDS011;5558;42.702;23.178;2023-07-30T09:50:13;2.63;;;2.43;;
11010;SDS011;5558;42.702;23.178;2023-07-30T09:52:40;2.80;;;2.50;;
11010;SDS011;5558;42.702;23.178;2023-07-30T09:55:09;3.10;;;2.50;;
11010;SDS011;5558;42.702;23.178;2023-07-30T09:57:36;2.87;;;2.50;;
11010;SDS011;5558;42.702;23.178;2023-07-30T10:00:03;5.53;;;2.50;;
11010;SDS011;5558;42.702;23.178;2023-07-30T10:02:35;4.87;;;2.53;;
11010;SDS011;5558;42.702;23.178;2023-07-30T10:05:04;3.70;;;2.70;;
11010;SDS011;5558;42.702;23.178;2023-07-30T10:07:36;2.83;;;2.57;;
11010;SDS011;5558;42.702;23.178;2023-07-30T10:10:09;3.17;;;2.53;;
11010;SDS011;5558;42.702;23.178;2023-07-30T10:12:37;3.67;;;2.67;;
11010;SDS011;5558;42.702;23.178;2023-07-30T10:15:06;3.13;;;2.83;;
11010;SDS011;5558;42.702;23.178;2023-07-30T10:17:34;2.80;;;2.60;;
11010;SDS011;5558;42.702;23.178;2023-07-30T10:22:52;4.07;;;2.80;;
11010;SDS011;5558;42.702;23.178;2023-07-30T10:25:22;3.37;;;2.80;;
11010;SDS011;5558;42.702;23.178;2023-07-30T10:27:55;3.20;;;2.90;;
11010;SDS011;5558;42.702;23.178;2023-07-30T10:30:27;3.73;;;2.70;;
11010;SDS011;5558;42.702;23.178;2023-07-30T10:32:58;4.70;;;2.90;;
11010;SDS011;5558;42.702;23.178;2023-07-30T10:35:35;4.07;;;2.90;;
11010;SDS011;5558;42.702;23.178;2023-07-30T10:38:16;3.47;;;2.60;;
11010;SDS011;5558;42.702;23.178;2023-07-30T10:41:00;4.13;;;2.83;;
11010;SDS011;5558;42.702;23.178;2023-07-30T10:43:29;4.17;;;3.00;;
11010;SDS011;5558;42.702;23.178;2023-07-30T10:45:55;4.00;;;3.00;;
11010;SDS011;5558;42.702;23.178;2023-07-30T10:48:29;4.87;;;2.97;;
11010;SDS011;5558;42.702;23.178;2023-07-30T10:50:57;2.90;;;2.70;;
11010;SDS011;5558;42.702;23.178;2023-07-30T10:53:25;3.77;;;2.93;;
11010;SDS011;5558;42.702;23.178;2023-07-30T10:55:51;4.80;;;2.90;;
11010;SDS011;5558;42.702;23.178;2023-07-30T10:58:20;3.50;;;3.00;;
11010;SDS011;5558;42.702;23.178;2023-07-30T11:00:48;3.70;;;3.10;;
11010;SDS011;5558;42.702;23.178;2023-07-30T11:03:15;3.70;;;2.80;;
11010;SDS011;5558;42.702;23.178;2023-07-30T11:05:42;4.60;;;3.17;;
11010;SDS011;5558;42.702;23.178;2023-07-30T11:08:12;4.20;;;2.90;;
11010;SDS011;5558;42.702;23.178;2023-07-30T11:10:42;3.90;;;3.07;;
11010;SDS011;5558;42.702;23.178;2023-07-30T11:13:10;4.40;;;2.80;;
11010;SDS011;5558;42.702;23.178;2023-07-30T11:15:42;3.80;;;3.00;;
11010;SDS011;5558;42.702;23.178;2023-07-30T11:18:11;4.30;;;3.00;;
11010;SDS011;5558;42.702;23.178;2023-07-30T11:20:38;5.90;;;3.03;;
11010;SDS011;5558;42.702;23.178;2023-07-30T11:23:18;3.77;;;3.00;;
11010;SDS011;5558;42.702;23.178;2023-07-30T11:25:48;4.87;;;3.10;;
11010;SDS011;5558;42.702;23.178;2023-07-30T11:28:28;3.80;;;3.00;;
11010;SDS011;5558;42.702;23.178;2023-07-30T11:30:57;5.20;;;3.10;;
11010;SDS011;5558;42.702;23.178;2023-07-30T11:33:26;5.03;;;3.20;;
11010;SDS011;5558;42.702;23.178;2023-07-30T11:35:53;5.07;;;2.87;;
11010;SDS011;5558;42.702;23.178;2023-07-30T11:38:20;5.63;;;3.00;;
11010;SDS011;5558;42.702;23.178;2023-07-30T11:40:47;5.07;;;3.20;;
11010;SDS011;5558;42.702;23.178;2023-07-30T11:43:15;5.80;;;3.17;;
11010;SDS011;5558;42.702;23.178;2023-07-30T11:45:42;5.00;;;3.23;;
11010;SDS011;5558;42.702;23.178;2023-07-30T11:48:10;3.80;;;3.10;;
11010;SDS011;5558;42.702;23.178;2023-07-30T11:50:47;3.27;;;2.97;;
11010;SDS011;5558;42.702;23.178;2023-07-30T11:53:16;4.67;;;3.13;;
11010;SDS011;5558;42.702;23.178;2023-07-30T11:55:44;4.23;;;2.97;;
11010;SDS011;5558;42.702;23.178;2023-07-30T11:58:11;4.70;;;3.47;;
11010;SDS011;5558;42.702;23.178;2023-07-30T12:00:39;3.90;;;3.17;;
11010;SDS011;5558;42.702;23.178;2023-07-30T12:03:09;6.90;;;3.60;;
11010;SDS011;5558;42.702;23.178;2023-07-30T12:05:38;3.10;;;2.80;;
11010;SDS011;5558;42.702;23.178;2023-07-30T12:08:06;3.53;;;3.03;;
11010;SDS011;5558;42.702;23.178;2023-07-30T12:10:42;3.43;;;3.00;;
11010;SDS011;5558;42.702;23.178;2023-07-30T12:13:14;3.23;;;2.80;;
11010;SDS011;5558;42.702;23.178;2023-07-30T12:15:42;4.03;;;2.90;;
11010;SDS011;5558;42.702;23.178;2023-07-30T12:18:12;5.43;;;3.10;;
11010;SDS011;5558;42.702;23.178;2023-07-30T12:20:38;4.40;;;2.77;;
11010;SDS011;5558;42.702;23.178;2023-07-30T12:23:05;8.23;;;3.50;;
11010;SDS011;5558;42.702;23.178;2023-07-30T12:25:32;4.20;;;3.20;;
11010;SDS011;5558;42.702;23.178;2023-07-30T12:27:58;4.40;;;3.10;;
11010;SDS011;5558;42.702;23.178;2023-07-30T12:30:25;5.27;;;3.47;;
11010;SDS011;5558;42.702;23.178;2023-07-30T12:32:52;3.87;;;3.10;;
11010;SDS011;5558;42.702;23.178;2023-07-30T12:35:21;3.40;;;3.10;;
11010;SDS011;5558;42.702;23.178;2023-07-30T12:37:48;3.43;;;2.87;;
11010;SDS011;5558;42.702;23.178;2023-07-30T12:40:15;4.73;;;2.93;;
11010;SDS011;5558;42.702;23.178;2023-07-30T12:42:42;5.67;;;3.37;;
11010;SDS011;5558;42.702;23.178;2023-07-30T12:45:09;4.63;;;2.97;;
11010;SDS011;5558;42.702;23.178;2023-07-30T12:47:36;3.37;;;3.07;;
11010;SDS011;5558;42.702;23.178;2023-07-30T12:50:03;4.13;;;3.30;;
11010;SDS011;5558;42.702;23.178;2023-07-30T12:52:32;4.67;;;3.20;;
11010;SDS011;5558;42.702;23.178;2023-07-30T12:54:59;3.30;;;3.00;;
11010;SDS011;5558;42.702;23.178;2023-07-30T12:57:26;3.23;;;2.80;;
11010;SDS011;5558;42.702;23.178;2023-07-30T12:59:53;3.60;;;2.97;;
11010;SDS011;5558;42.702;23.178;2023-07-30T13:02:19;5.77;;;3.50;;
11010;SDS011;5558;42.702;23.178;2023-07-30T13:04:46;4.50;;;3.30;;
11010;SDS011;5558;42.702;23.178;2023-07-30T13:07:13;4.30;;;3.07;;
11010;SDS011;5558;42.702;23.178;2023-07-30T13:09:41;4.33;;;3.40;;
11010;SDS011;5558;42.702;23.178;2023-07-30T13:12:08;4.10;;;3.20;;
11010;SDS011;5558;42.702;23.178;2023-07-30T13:14:35;3.40;;;3.10;;
11010;SDS011;5558;42.702;23.178;2023-07-30T13:17:01;5.43;;;3.10;;
11010;SDS011;5558;42.702;23.178;2023-07-30T13:19:28;3.40;;;3.10;;
11010;SDS011;5558;42.702;23.178;2023-07-30T13:21:57;4.90;;;3.40;;
11010;SDS011;5558;42.702;23.178;2023-07-30T13:24:24;6.30;;;3.20;;
11010;SDS011;5558;42.702;23.178;2023-07-30T13:26:52;3.73;;;3.00;;
11010;SDS011;5558;42.702;23.178;2023-07-30T13:29:18;4.07;;;3.20;;
11010;SDS011;5558;42.702;23.178;2023-07-30T13:31:45;3.93;;;2.93;;
11010;SDS011;5558;42.702;23.178;2023-07-30T13:34:11;5.00;;;3.30;;
11010;SDS011;5558;42.702;23.178;2023-07-30T13:36:38;5.77;;;3.10;;
11010;SDS011;5558;42.702;23.178;2023-07-30T13:39:05;4.30;;;3.07;;
11010;SDS011;5558;42.702;23.178;2023-07-30T13:41:32;5.20;;;3.43;;
11010;SDS011;5558;42.702;23.178;2023-07-30T13:44:00;3.80;;;3.10;;
11010;SDS011;5558;42.702;23.178;2023-07-30T13:46:26;4.07;;;3.03;;
11010;SDS011;5558;42.702;23.178;2023-07-30T13:48:53;6.17;;;3.33;;
11010;SDS011;5558;42.702;23.178;2023-07-30T13:51:20;3.77;;;2.80;;
11010;SDS011;5558;42.702;23.178;2023-07-30T13:53:46;3.80;;;2.90;;
11010;SDS011;5558;42.702;23.178;2023-07-30T13:56:13;4.37;;;3.10;;
11010;SDS011;5558;42.702;23.178;2023-07-30T13:58:40;4.70;;;3.30;;
11010;SDS011;5558;42.702;23.178;2023-07-30T14:01:08;4.60;;;3.23;;
11010;SDS011;5558;42.702;23.178;2023-07-30T14:03:35;6.47;;;3.40;;
11010;SDS011;5558;42.702;23.178;2023-07-30T14:06:02;3.43;;;3.13;;
11010;SDS011;5558;42.702;23.178;2023-07-30T14:08:29;4.30;;;3.07;;
11010;SDS011;5558;42.702;23.178;2023-07-30T14:10:55;12.17;;;6.50;;
11010;SDS011;5558;42.702;23.178;2023-07-30T14:13:22;8.20;;;3.43;;
11010;SDS011;5558;42.702;23.178;2023-07-30T14:15:49;4.17;;;3.10;;
11010;SDS011;5558;42.702;23.178;2023-07-30T14:18:18;6.50;;;3.30;;
11010;SDS011;5558;42.702;23.178;2023-07-30T14:20:44;4.07;;;2.93;;
11010;SDS011;5558;42.702;23.178;2023-07-30T14:23:11;4.13;;;3.03;;
11010;SDS011;5558;42.702;23.178;2023-07-30T14:25:38;3.50;;;3.20;;
11010;SDS011;5558;42.702;23.178;2023-07-30T14:28:05;4.67;;;3.00;;
11010;SDS011;5558;42.702;23.178;2023-07-30T14:30:31;6.03;;;3.43;;
11010;SDS011;5558;42.702;23.178;2023-07-30T14:32:59;12.30;;;3.17;;
11010;SDS011;5558;42.702;23.178;2023-07-30T14:35:27;5.43;;;3.00;;
11010;SDS011;5558;42.702;23.178;2023-07-30T14:37:54;5.17;;;3.37;;
11010;SDS011;5558;42.702;23.178;2023-07-30T14:40:20;4.03;;;3.10;;
11010;SDS011;5558;42.702;23.178;2023-07-30T14:42:48;4.80;;;3.00;;
11010;SDS011;5558;42.702;23.178;2023-07-30T14:45:14;4.73;;;3.20;;
11010;SDS011;5558;42.702;23.178;2023-07-30T14:47:41;5.37;;;3.17;;
11010;SDS011;5558;42.702;23.178;2023-07-30T14:50:08;5.40;;;3.40;;
11010;SDS011;5558;42.702;23.178;2023-07-30T14:52:37;9.97;;;3.47;;